Time;durP1;ratioP1;P1;durP2;ratioP2;P2;SDS_P1;SDS_P2;PMS_P1;PMS_P2;Temp;Humidity;BMP_temperature;BMP_pressure;BME280_temperature;BME280_humidity;BME280_pressure;Samples;Min_cycle;Max_cycle;Signal;HPM_P1;HPM_P2
2023/12/17 00:00:03;;;;;;;47.60;33.80;;;;;;;0.79;100.00;102144.97;4962842;28;20035;-80
2023/12/17 00:02:30;;;;;;;44.55;32.33;;;;;;;0.79;100.00;102144.13;4969187;28;20209;-79
2023/12/17 00:04:55;;;;;;;47.03;33.20;;;;;;;0.74;100.00;102140.72;4960954;28;20101;-80
2023/12/17 00:07:21;;;;;;;51.47;34.28;;;;;;;0.79;100.00;102138.91;4957942;28;20058;-79
2023/12/17 00:09:46;;;;;;;52.97;32.80;;;;;;;0.79;100.00;102139.78;4962002;28;20082;-81
2023/12/17 00:12:11;;;;;;;49.15;33.33;;;;;;;0.81;100.00;102142.38;4958525;28;20039;-81
2023/12/17 00:14:37;;;;;;;43.00;32.17;;;;;;;0.73;100.00;102144.19;4962283;28;20034;-80
2023/12/17 00:17:02;;;;;;;48.25;32.63;;;;;;;0.68;100.00;102140.78;4961285;28;20027;-79
2023/12/17 00:19:28;;;;;;;48.97;32.75;;;;;;;0.61;100.00;102144.31;4959935;28;20035;-80
2023/12/17 00:21:53;;;;;;;44.15;31.42;;;;;;;0.54;100.00;102140.06;4963093;28;20038;-80
2023/12/17 00:24:19;;;;;;;45.95;32.05;;;;;;;0.43;100.00;102131.53;4962005;28;20391;-80
2023/12/17 00:26:46;;;;;;;45.25;30.92;;;;;;;0.34;100.00;102130.78;4957423;28;20449;-81
2023/12/17 00:29:11;;;;;;;46.80;31.65;;;;;;;0.18;100.00;102126.56;4962375;28;20031;-79
2023/12/17 00:31:37;;;;;;;48.83;33.55;;;;;;;0.13;100.00;102112.78;4963763;28;20428;-80
2023/12/17 00:34:02;;;;;;;51.42;35.78;;;;;;;0.10;100.00;102125.81;4962522;28;20332;-80
2023/12/17 00:36:28;;;;;;;51.55;33.50;;;;;;;0.16;100.00;102117.97;4959014;28;20447;-80
2023/12/17 00:38:53;;;;;;;48.85;33.55;;;;;;;0.24;100.00;102121.31;4963207;28;20034;-80
2023/12/17 00:41:18;;;;;;;51.05;35.90;;;;;;;0.26;100.00;102122.19;4962962;28;20515;-81
2023/12/17 00:43:44;;;;;;;51.10;35.67;;;;;;;0.12;100.00;102124.03;4961413;28;20487;-80
2023/12/17 00:46:09;;;;;;;55.33;37.03;;;;;;;0.09;100.00;102123.22;4960555;28;20121;-79
2023/12/17 00:48:35;;;;;;;54.40;37.15;;;;;;;0.07;100.00;102125.81;4954597;28;20058;-79
2023/12/17 00:51:00;;;;;;;57.03;37.80;;;;;;;0.10;100.00;102125.81;4977868;28;20177;-80
2023/12/17 00:53:26;;;;;;;53.03;37.72;;;;;;;0.15;100.00;102129.22;4959730;28;20435;-78
2023/12/17 00:55:51;;;;;;;51.30;36.42;;;;;;;0.24;100.00;102133.44;4958675;28;20046;-79
2023/12/17 00:58:17;;;;;;;54.13;37.28;;;;;;;0.29;100.00;102142.94;4961125;28;20074;-80
2023/12/17 01:00:42;;;;;;;55.30;37.58;;;;;;;0.32;100.00;102135.09;4961504;28;20030;-79
2023/12/17 01:03:08;;;;;;;55.78;35.22;;;;;;;0.30;100.00;102144.63;4964469;28;20028;-81
2023/12/17 01:05:34;;;;;;;55.15;35.90;;;;;;;0.25;100.00;102141.22;4973664;28;20444;-79
2023/12/17 01:07:59;;;;;;;53.50;37.00;;;;;;;0.22;100.00;102140.41;4961183;28;20066;-80
2023/12/17 01:10:24;;;;;;;51.70;36.72;;;;;;;0.15;100.00;102147.41;4964671;28;20105;-79
2023/12/17 01:12:50;;;;;;;54.22;36.00;;;;;;;0.14;100.00;102155.19;4960645;28;20039;-79
2023/12/17 01:15:15;;;;;;;52.70;35.90;;;;;;;0.10;100.00;102159.56;4958709;28;20039;-80
2023/12/17 01:17:41;;;;;;;52.78;35.97;;;;;;;0.13;100.00;102161.25;4960169;28;20503;-79
2023/12/17 01:20:08;;;;;;;49.50;35.70;;;;;;;0.08;100.00;102157.84;4956771;28;20028;-80
2023/12/17 01:22:33;;;;;;;59.22;38.53;;;;;;;-0.22;100.00;102143.38;4965144;28;20118;-81
2023/12/17 01:24:59;;;;;;;54.45;37.92;;;;;;;-0.43;100.00;102141.81;4961257;28;20062;-80
2023/12/17 01:27:24;;;;;;;55.25;37.25;;;;;;;-0.49;100.00;102150.50;4962816;28;20043;-79
2023/12/17 01:29:50;;;;;;;50.13;36.03;;;;;;;-0.61;100.00;102150.56;4961957;28;20035;-80
2023/12/17 01:32:15;;;;;;;49.38;35.53;;;;;;;-0.73;100.00;102150.63;4967662;28;20027;-81
2023/12/17 01:34:41;;;;;;;50.70;37.15;;;;;;;-0.79;100.00;102148.09;4975517;28;20039;-80
2023/12/17 01:37:06;;;;;;;53.05;36.63;;;;;;;-0.82;100.00;102151.53;4964974;28;20019;-77
2023/12/17 01:39:32;;;;;;;50.60;37.50;;;;;;;-0.77;100.00;102151.53;4961197;28;20043;-79
2023/12/17 01:41:57;;;;;;;54.20;38.53;;;;;;;-0.75;100.00;102151.50;4964123;28;20114;-79
2023/12/17 01:44:23;;;;;;;57.53;39.42;;;;;;;-0.72;100.00;102151.50;4970421;28;20105;-80
2023/12/17 01:46:48;;;;;;;57.25;39.83;;;;;;;-0.76;100.00;102145.47;4961666;28;20039;-82
2023/12/17 01:49:14;;;;;;;54.63;39.53;;;;;;;-0.78;100.00;102142.03;4961676;28;20033;-80
2023/12/17 01:51:42;;;;;;;59.35;39.58;;;;;;;-0.75;100.00;102152.38;4968151;28;20043;-79
2023/12/17 01:54:07;;;;;;;52.92;39.45;;;;;;;-0.65;100.00;102148.88;4974672;28;20445;-80
2023/12/17 01:56:33;;;;;;;54.30;39.00;;;;;;;-0.54;100.00;102147.06;4964891;28;20188;-78
2023/12/17 01:59:00;;;;;;;53.88;37.63;;;;;;;-0.46;100.00;102129.72;4960971;28;20069;-79
2023/12/17 02:01:25;;;;;;;56.40;40.03;;;;;;;-0.50;100.00;102128.03;4966977;28;20042;-79
2023/12/17 02:03:53;;;;;;;53.88;38.47;;;;;;;-0.64;100.00;102137.59;4963919;28;20094;-79
2023/12/17 02:06:19;;;;;;;51.85;36.67;;;;;;;-0.63;100.00;102134.16;4963024;28;20495;-80
2023/12/17 02:08:44;;;;;;;50.38;36.83;;;;;;;-0.51;100.00;102133.22;4961663;28;20089;-78
2023/12/17 02:11:10;;;;;;;49.67;37.00;;;;;;;-0.47;100.00;102127.97;4961290;28;20038;-80
2023/12/17 02:13:35;;;;;;;60.03;36.42;;;;;;;-0.48;100.00;102131.47;4962674;28;20456;-80
2023/12/17 02:16:00;;;;;;;49.22;36.30;;;;;;;-0.52;100.00;102134.94;4961197;28;20063;-79
2023/12/17 02:18:26;;;;;;;53.35;35.85;;;;;;;-0.53;100.00;102143.59;4960713;28;20039;-79
2023/12/17 02:20:53;;;;;;;50.33;35.50;;;;;;;-0.50;100.00;102135.81;4963835;28;20446;-80
2023/12/17 02:23:18;;;;;;;49.40;36.67;;;;;;;-0.53;100.00;102133.22;4962467;28;20109;-79
2023/12/17 02:25:45;;;;;;;55.38;37.17;;;;;;;-0.53;100.00;102128.03;4971562;28;20053;-79
2023/12/17 02:28:11;;;;;;;52.35;38.13;;;;;;;-0.53;100.00;102122.84;4976511;28;20110;-80
2023/12/17 02:30:36;;;;;;;51.17;36.15;;;;;;;-0.52;100.00;102127.16;4967500;28;20066;-79
2023/12/17 02:33:02;;;;;;;56.80;36.88;;;;;;;-0.49;100.00;102119.38;4968848;28;20035;-80
2023/12/17 02:35:27;;;;;;;53.70;37.72;;;;;;;-0.48;100.00;102112.47;4968224;28;20030;-79
2023/12/17 02:37:53;;;;;;;58.58;39.40;;;;;;;-0.47;100.00;102115.00;4961560;28;20065;-79
2023/12/17 02:40:18;;;;;;;53.53;37.53;;;;;;;-0.47;100.00;102115.00;4964787;28;20031;-80
2023/12/17 02:42:44;;;;;;;61.33;40.17;;;;;;;-0.49;100.00;102111.59;4963263;28;20062;-80
2023/12/17 02:45:10;;;;;;;59.30;39.63;;;;;;;-0.62;100.00;102106.50;4960704;28;20329;-79
2023/12/17 02:47:35;;;;;;;62.45;39.25;;;;;;;-0.54;100.00;102095.22;4969056;28;20166;-78
2023/12/17 02:50:01;;;;;;;67.18;39.70;;;;;;;-0.51;100.00;102105.53;4965155;28;20055;-80
2023/12/17 02:52:26;;;;;;;59.78;39.80;;;;;;;-0.52;100.00;102087.38;4983757;28;20449;-77
2023/12/17 02:54:52;;;;;;;79.65;40.35;;;;;;;-0.62;100.00;102091.78;4961780;28;20047;-79
2023/12/17 02:57:17;;;;;;;70.57;40.05;;;;;;;-0.66;100.00;102084.91;4966852;28;20057;-78
2023/12/17 02:59:43;;;;;;;88.88;40.55;;;;;;;-0.82;100.00;102090.22;4963335;28;20061;-79
2023/12/17 03:02:08;;;;;;;104.15;41.10;;;;;;;-1.05;100.00;102079.94;4960101;28;20035;-79
2023/12/17 03:04:34;;;;;;;83.47;40.55;;;;;;;-1.20;100.00;102072.28;4959685;28;20097;-77
2023/12/17 03:06:59;;;;;;;66.40;40.33;;;;;;;-1.01;100.00;102066.13;4962271;28;20257;-79
2023/12/17 03:09:25;;;;;;;77.07;41.80;;;;;;;-0.90;100.00;102075.56;4960969;28;20050;-79
2023/12/17 03:11:50;;;;;;;66.43;42.72;;;;;;;-0.85;100.00;102083.31;4959240;28;20460;-78
2023/12/17 03:14:15;;;;;;;64.68;42.08;;;;;;;-0.82;100.00;102083.28;4962309;28;20039;-79
2023/12/17 03:16:42;;;;;;;72.60;43.65;;;;;;;-0.72;100.00;102074.59;4963999;28;20061;-79
2023/12/17 03:19:07;;;;;;;94.50;43.83;;;;;;;-0.85;100.00;102080.72;4959984;28;20035;-81
2023/12/17 03:21:33;;;;;;;101.63;44.90;;;;;;;-0.94;100.00;102083.34;4960321;28;20046;-80
2023/12/17 03:23:58;;;;;;;92.15;44.33;;;;;;;-0.97;100.00;102096.34;4963899;28;20097;-80
2023/12/17 03:26:24;;;;;;;77.75;45.15;;;;;;;-1.04;100.00;102084.28;4960022;28;20039;-80
2023/12/17 03:28:49;;;;;;;83.72;43.00;;;;;;;-1.14;100.00;102087.78;4976632;28;20031;-80
2023/12/17 03:31:16;;;;;;;104.82;45.20;;;;;;;-1.39;100.00;102084.44;4961638;28;20089;-81
2023/12/17 03:33:43;;;;;;;112.68;44.33;;;;;;;-1.58;100.00;102072.41;4960461;28;20822;-79
2023/12/17 03:36:11;;;;;;;94.30;47.55;;;;;;;-1.66;100.00;102078.50;4959641;28;20485;-81
2023/12/17 03:38:37;;;;;;;90.43;47.47;;;;;;;-1.67;100.00;102056.06;4960306;28;20066;-82
2023/12/17 03:41:02;;;;;;;93.57;49.60;;;;;;;-1.60;100.00;102054.31;4959267;28;20054;-79
2023/12/17 03:43:27;;;;;;;104.88;52.03;;;;;;;-1.62;100.00;102050.88;4960925;28;20895;-80
2023/12/17 03:45:53;;;;;;;105.05;51.20;;;;;;;-1.69;100.00;102043.97;4960384;28;20023;-79
2023/12/17 03:48:18;;;;;;;96.38;53.05;;;;;;;-1.66;100.00;102043.97;4958243;28;20020;-79
2023/12/17 03:50:44;;;;;;;87.00;51.85;;;;;;;-1.59;100.00;102045.66;4960853;28;20463;-80
2023/12/17 03:53:10;;;;;;;92.68;49.88;;;;;;;-1.54;100.00;102043.06;4960401;28;20050;-78
2023/12/17 03:55:37;;;;;;;78.65;48.90;;;;;;;-1.56;100.00;102048.25;4970322;28;20046;-78
2023/12/17 03:58:03;;;;;;;76.43;47.63;;;;;;;-1.51;100.00;102032.69;4959961;28;20371;-79
2023/12/17 04:00:29;;;;;;;64.57;44.55;;;;;;;-1.57;100.00;102033.56;4958960;28;20045;-78
2023/12/17 04:02:54;;;;;;;64.75;45.58;;;;;;;-1.45;100.00;102030.94;4962069;28;20110;-79
2023/12/17 04:05:20;;;;;;;63.83;44.38;;;;;;;-1.33;100.00;102030.03;4973441;28;20047;-79
2023/12/17 04:07:45;;;;;;;72.68;45.47;;;;;;;-1.34;100.00;102042.09;4961278;28;20083;-78
2023/12/17 04:10:11;;;;;;;68.32;44.45;;;;;;;-1.24;100.00;102043.78;4957775;28;20031;-78
2023/12/17 04:12:36;;;;;;;65.50;45.05;;;;;;;-1.18;100.00;102048.09;4962755;28;20486;-79
2023/12/17 04:15:02;;;;;;;83.28;43.58;;;;;;;-1.21;100.00;102037.72;4961643;28;20035;-80
2023/12/17 04:17:27;;;;;;;74.78;42.42;;;;;;;-1.25;100.00;102046.41;4961186;28;20035;-78
2023/12/17 04:19:53;;;;;;;93.38;43.95;;;;;;;-1.30;100.00;102049.03;4976038;28;20069;-79
2023/12/17 04:22:19;;;;;;;71.50;43.08;;;;;;;-1.35;100.00;102040.38;4961572;28;20035;-78
2023/12/17 04:24:45;;;;;;;76.18;45.58;;;;;;;-1.41;100.00;102055.94;4959020;28;20038;-79
2023/12/17 04:27:11;;;;;;;80.10;46.03;;;;;;;-1.43;100.00;102051.66;4959336;28;20054;-79
2023/12/17 04:29:36;;;;;;;74.60;47.05;;;;;;;-1.37;100.00;102046.47;4961707;28;20504;-79
2023/12/17 04:32:02;;;;;;;72.75;46.67;;;;;;;-1.29;100.00;102055.03;4959816;28;20463;-80
2023/12/17 04:34:27;;;;;;;67.80;44.85;;;;;;;-1.23;100.00;102049.81;4959666;28;20106;-79
2023/12/17 04:36:53;;;;;;;64.85;43.17;;;;;;;-1.19;100.00;102050.69;4963077;28;20054;-80
2023/12/17 04:39:20;;;;;;;63.25;41.15;;;;;;;-1.17;100.00;102064.47;4958973;28;20039;-79
2023/12/17 04:41:45;;;;;;;58.25;39.78;;;;;;;-1.16;100.00;102071.38;4961825;28;20117;-80
2023/12/17 04:44:10;;;;;;;59.28;40.72;;;;;;;-1.16;100.00;102067.06;4960255;28;20144;-80
2023/12/17 04:46:38;;;;;;;60.95;41.90;;;;;;;-1.05;100.00;102057.50;4959723;28;20027;-80
2023/12/17 04:49:03;;;;;;;56.05;38.80;;;;;;;-1.00;100.00;102053.13;4959045;28;20117;-79
2023/12/17 04:51:28;;;;;;;56.92;41.53;;;;;;;-0.96;100.00;102059.19;4963806;28;20552;-80
2023/12/17 04:53:54;;;;;;;54.38;39.13;;;;;;;-0.97;100.00;102063.50;4961213;28;20038;-79
2023/12/17 04:56:21;;;;;;;59.28;40.00;;;;;;;-0.99;100.00;102059.19;4961696;28;20053;-79
2023/12/17 04:58:47;;;;;;;57.75;40.28;;;;;;;-1.02;100.00;102059.22;4958471;28;20118;-79
2023/12/17 05:01:12;;;;;;;63.55;41.97;;;;;;;-1.12;100.00;102060.16;4976781;28;20050;-80
2023/12/17 05:03:38;;;;;;;63.13;41.50;;;;;;;-1.16;100.00;102063.59;4975120;28;20484;-80
2023/12/17 05:06:04;;;;;;;60.38;41.45;;;;;;;-1.18;100.00;102058.47;4974895;28;20061;-81
2023/12/17 05:08:30;;;;;;;60.53;40.58;;;;;;;-1.18;100.00;102070.53;4968585;28;20042;-80
2023/12/17 05:10:56;;;;;;;57.10;40.58;;;;;;;-1.11;100.00;102072.22;4967468;28;20049;-80
2023/12/17 05:13:21;;;;;;;57.92;40.95;;;;;;;-1.04;100.00;102066.13;4963101;28;20078;-80
2023/12/17 05:15:47;;;;;;;60.50;41.72;;;;;;;-1.00;100.00;102067.84;4969561;28;20027;-80
2023/12/17 05:18:12;;;;;;;58.83;40.38;;;;;;;-0.98;100.00;102063.50;4961571;28;20032;-78
2023/12/17 05:20:39;;;;;;;58.70;40.72;;;;;;;-0.98;100.00;102056.59;4962800;28;20027;-78
2023/12/17 05:23:04;;;;;;;54.53;40.25;;;;;;;-0.99;100.00;102054.00;4965130;28;20031;-79
2023/12/17 05:25:30;;;;;;;60.10;38.95;;;;;;;-1.17;100.00;102061.88;4963863;28;20408;-80
2023/12/17 05:27:56;;;;;;;53.00;39.05;;;;;;;-1.25;100.00;102047.25;4963461;28;20027;-80
2023/12/17 05:30:22;;;;;;;52.67;37.13;;;;;;;-1.10;100.00;102050.63;4962113;28;20487;-78
2023/12/17 05:32:49;;;;;;;49.40;37.30;;;;;;;-1.04;100.00;102051.44;4961279;28;20225;-80
2023/12/17 05:35:15;;;;;;;57.55;39.35;;;;;;;-1.01;100.00;102055.78;4961019;28;20063;-80
2023/12/17 05:37:40;;;;;;;82.38;40.13;;;;;;;-1.09;100.00;102062.72;4963070;28;20027;-80
2023/12/17 05:40:07;;;;;;;56.65;39.00;;;;;;;-1.15;100.00;102057.56;4965283;28;20034;-78
2023/12/17 05:42:33;;;;;;;53.67;38.40;;;;;;;-1.22;100.00;102051.53;4965148;28;20110;-80
2023/12/17 05:44:58;;;;;;;55.40;38.13;;;;;;;-1.31;100.00;102041.25;4963884;28;20062;-79
2023/12/17 05:47:24;;;;;;;56.75;39.08;;;;;;;-1.27;100.00;102058.47;4969747;28;20035;-79
2023/12/17 05:49:49;;;;;;;52.83;38.83;;;;;;;-1.26;100.00;102066.25;4965117;28;20062;-80
2023/12/17 05:52:15;;;;;;;62.83;41.25;;;;;;;-1.26;100.00;102076.63;4964990;28;20718;-80
2023/12/17 05:54:43;;;;;;;56.67;38.20;;;;;;;-1.30;100.00;102080.09;4964718;28;20065;-78
2023/12/17 05:57:08;;;;;;;53.08;37.88;;;;;;;-1.33;100.00;102080.09;4967661;28;20070;-80
2023/12/17 05:59:33;;;;;;;49.80;37.38;;;;;;;-1.37;100.00;102073.22;4962107;28;20508;-79
2023/12/17 06:01:59;;;;;;;50.42;37.88;;;;;;;-1.40;100.00;102073.22;4964599;28;20030;-78
2023/12/17 06:04:25;;;;;;;52.13;37.55;;;;;;;-1.40;100.00;102075.81;4991762;28;20501;-79
2023/12/17 06:06:50;;;;;;;48.15;36.85;;;;;;;-1.43;100.00;102073.25;4966972;28;20035;-78
2023/12/17 06:09:16;;;;;;;50.25;37.83;;;;;;;-1.43;100.00;102073.25;4965114;28;20039;-79
2023/12/17 06:11:43;;;;;;;50.83;37.50;;;;;;;-1.36;100.00;102059.41;4959367;28;20108;-79
2023/12/17 06:14:10;;;;;;;50.92;38.65;;;;;;;-1.41;100.00;102068.03;4961769;28;20110;-81
2023/12/17 06:16:40;;;;;;;55.13;37.63;;;;;;;-1.29;100.00;102075.75;4964154;28;20500;-80
2023/12/17 06:19:06;;;;;;;51.15;37.40;;;;;;;-1.29;100.00;102092.16;4965298;28;20031;-80
2023/12/17 06:21:31;;;;;;;49.90;37.50;;;;;;;-1.32;100.00;102102.56;4968517;28;20353;-79
2023/12/17 06:23:57;;;;;;;48.75;36.33;;;;;;;-1.32;100.00;102107.72;4962932;28;20034;-80
2023/12/17 06:26:26;;;;;;;47.70;37.35;;;;;;;-1.32;100.00;102101.69;4965331;28;20062;-78
2023/12/17 06:28:52;;;;;;;50.08;36.67;;;;;;;-1.30;100.00;102107.72;4963754;28;20022;-79
2023/12/17 06:31:17;;;;;;;46.95;36.10;;;;;;;-1.35;100.00;102107.72;4960074;28;20035;-79
2023/12/17 06:33:43;;;;;;;45.67;36.25;;;;;;;-1.36;100.00;102103.44;4963775;28;20030;-78
2023/12/17 06:36:09;;;;;;;47.67;36.88;;;;;;;-1.36;100.00;102100.84;4961849;28;20051;-79
2023/12/17 06:38:34;;;;;;;45.88;35.60;;;;;;;-1.38;100.00;102102.56;4961996;28;20561;-79
2023/12/17 06:41:00;;;;;;;46.13;34.75;;;;;;;-1.36;100.00;102099.97;4976237;28;20035;-80
2023/12/17 06:43:25;;;;;;;44.03;34.97;;;;;;;-1.33;100.00;102105.13;4963650;28;20110;-80
2023/12/17 06:45:51;;;;;;;44.55;34.90;;;;;;;-1.38;100.00;102112.94;4959731;28;20046;-80
2023/12/17 06:48:18;;;;;;;42.75;33.88;;;;;;;-1.39;100.00;102113.78;4962941;28;20448;-77
2023/12/17 06:50:43;;;;;;;45.85;35.25;;;;;;;-1.43;100.00;102112.09;4960504;28;20031;-78
2023/12/17 06:53:08;;;;;;;43.75;34.72;;;;;;;-1.42;100.00;102116.41;4970384;28;20127;-79
2023/12/17 06:55:34;;;;;;;44.08;34.42;;;;;;;-1.40;100.00;102117.25;4964578;28;20098;-79
2023/12/17 06:57:59;;;;;;;44.85;35.15;;;;;;;-1.37;100.00;102114.66;4962822;28;20037;-79
2023/12/17 07:00:25;;;;;;;43.92;34.97;;;;;;;-1.34;100.00;102117.22;4961105;28;20038;-80
2023/12/17 07:02:51;;;;;;;42.72;34.45;;;;;;;-1.36;100.00;102120.69;4963758;28;20039;-79
2023/12/17 07:05:16;;;;;;;42.03;33.08;;;;;;;-1.48;100.00;102126.78;4960692;28;20094;-79
2023/12/17 07:07:46;;;;;;;41.70;33.67;;;;;;;-1.53;100.00;102130.25;4959405;28;20518;-78
2023/12/17 07:10:12;;;;;;;44.35;34.33;;;;;;;-1.63;100.00;102120.75;4960463;28;20114;-79
2023/12/17 07:12:37;;;;;;;38.47;32.08;;;;;;;-1.70;100.00;102122.50;4975903;28;20109;-79
2023/12/17 07:15:03;;;;;;;42.70;33.65;;;;;;;-1.71;100.00;102123.38;4960917;28;20103;-79
2023/12/17 07:17:30;;;;;;;43.35;34.67;;;;;;;-1.71;100.00;102123.38;4961452;28;20087;-78
2023/12/17 07:19:55;;;;;;;44.20;33.03;;;;;;;-1.71;100.00;102131.16;4963022;28;20045;-80
2023/12/17 07:22:22;;;;;;;47.13;34.92;;;;;;;-1.73;100.00;102132.88;4964969;28;20038;-79
2023/12/17 07:24:49;;;;;;;48.55;35.67;;;;;;;-1.72;100.00;102126.84;4966044;28;20067;-79
2023/12/17 07:27:16;;;;;;;45.90;35.25;;;;;;;-1.70;100.00;102125.09;4961511;28;20568;-80
2023/12/17 07:29:41;;;;;;;45.90;34.50;;;;;;;-1.67;100.00;102119.91;4962956;28;20034;-78
2023/12/17 07:32:07;;;;;;;45.80;35.95;;;;;;;-1.65;100.00;102123.38;4976826;28;20402;-79
2023/12/17 07:34:32;;;;;;;45.13;36.10;;;;;;;-1.65;100.00;102128.56;4963997;28;20443;-79
2023/12/17 07:36:59;;;;;;;43.88;34.13;;;;;;;-1.60;100.00;102124.22;4962335;28;20118;-78
2023/12/17 07:39:25;;;;;;;42.15;33.67;;;;;;;-1.54;100.00;102121.63;4991814;28;20365;-78
2023/12/17 07:41:51;;;;;;;47.47;35.70;;;;;;;-1.52;100.00;102119.88;4964071;28;20093;-77
2023/12/17 07:44:16;;;;;;;42.65;34.30;;;;;;;-1.50;100.00;102123.31;4968340;28;20082;-78
2023/12/17 07:46:42;;;;;;;45.03;34.88;;;;;;;-1.54;100.00;102125.94;4959457;28;20059;-79
2023/12/17 07:49:07;;;;;;;48.53;36.05;;;;;;;-1.55;100.00;102134.56;4959948;28;20114;-79
2023/12/17 07:51:33;;;;;;;44.95;34.92;;;;;;;-1.56;100.00;102138.88;4963299;28;20038;-80
2023/12/17 07:53:58;;;;;;;44.75;34.78;;;;;;;-1.53;100.00;102146.63;4965348;28;20027;-82
2023/12/17 07:56:24;;;;;;;46.33;35.60;;;;;;;-1.46;100.00;102150.94;4962742;28;20057;-80
2023/12/17 07:58:50;;;;;;;45.63;35.75;;;;;;;-1.40;100.00;102156.09;4963077;28;20038;-80
2023/12/17 08:01:16;;;;;;;45.60;35.05;;;;;;;-1.32;100.00;102158.66;4957771;22;20064;-76
2023/12/17 08:03:41;;;;;;;47.55;34.47;;;;;;;-1.26;100.00;102159.50;4927429;29;20083;-76
2023/12/17 08:06:07;;;;;;;49.38;36.35;;;;;;;-1.17;100.00;102157.75;4923386;29;20100;-77
2023/12/17 08:08:32;;;;;;;43.35;33.47;;;;;;;-1.13;100.00;102165.53;4926386;29;20408;-76
2023/12/17 08:10:59;;;;;;;45.13;34.38;;;;;;;-1.07;100.00;102169.81;4923241;29;20028;-76
2023/12/17 08:13:25;;;;;;;42.28;34.30;;;;;;;-0.99;100.00;102174.09;4925262;29;20063;-77
2023/12/17 08:15:50;;;;;;;41.25;34.25;;;;;;;-0.90;100.00;102178.38;4924998;29;20028;-74
2023/12/17 08:18:15;;;;;;;46.63;36.65;;;;;;;-0.86;100.00;102177.50;4927442;29;20042;-77
2023/12/17 08:20:41;;;;;;;48.60;36.60;;;;;;;-0.88;100.00;102181.81;4922395;29;20028;-74
2023/12/17 08:23:06;;;;;;;44.58;34.95;;;;;;;-0.84;100.00;102188.72;4926352;29;20038;-74
2023/12/17 08:25:38;;;;;;;46.15;35.83;;;;;;;-0.81;100.00;102188.69;4923402;29;20046;-76
2023/12/17 08:28:04;;;;;;;47.80;36.20;;;;;;;-0.78;100.00;102188.69;4927150;29;20027;-75
2023/12/17 08:30:30;;;;;;;46.72;36.25;;;;;;;-0.85;100.00;102197.38;4928268;29;20376;-74
2023/12/17 08:32:55;;;;;;;46.78;35.15;;;;;;;-0.89;100.00;102200.84;4925780;29;20047;-76
2023/12/17 08:35:21;;;;;;;45.92;35.75;;;;;;;-0.88;100.00;102199.94;4924811;29;20068;-75
2023/12/17 08:37:46;;;;;;;48.80;36.70;;;;;;;-0.82;100.00;102197.34;4924850;29;20455;-75
2023/12/17 08:40:12;;;;;;;44.10;35.55;;;;;;;-0.75;100.00;102199.03;4924489;29;20051;-74
2023/12/17 08:42:37;;;;;;;46.35;35.97;;;;;;;-0.62;100.00;102210.22;4926149;28;20119;-75
2023/12/17 08:45:03;;;;;;;44.72;35.20;;;;;;;-0.67;100.00;102211.97;4921979;29;20144;-74
2023/12/17 08:47:28;;;;;;;50.53;37.20;;;;;;;-0.74;100.00;102211.13;4924335;29;20039;-75
2023/12/17 08:49:56;;;;;;;51.67;37.25;;;;;;;-0.90;100.00;102225.91;4925339;29;20059;-73
2023/12/17 08:52:21;;;;;;;50.45;37.22;;;;;;;-0.60;100.00;102219.72;4940733;28;20178;-76
2023/12/17 08:54:47;;;;;;;49.70;37.58;;;;;;;-0.46;100.00;102217.03;4927572;28;20469;-78
2023/12/17 08:57:12;;;;;;;50.97;37.17;;;;;;;-0.37;100.00;102221.31;4924521;29;20118;-80
2023/12/17 08:59:41;;;;;;;48.17;37.47;;;;;;;-0.30;100.00;102217.84;4919958;29;20036;-78
2023/12/17 09:02:07;;;;;;;49.55;38.13;;;;;;;-0.19;100.00;102213.44;4930517;29;20043;-77
2023/12/17 09:04:32;;;;;;;49.22;36.80;;;;;;;-0.12;100.00;102212.53;4939571;28;20497;-77
2023/12/17 09:06:58;;;;;;;55.88;37.63;;;;;;;0.03;100.00;102222.78;4925357;29;20390;-77
2023/12/17 09:09:24;;;;;;;48.92;37.03;;;;;;;0.13;100.00;102223.56;4923951;29;20059;-77
2023/12/17 09:11:49;;;;;;;48.70;37.03;;;;;;;0.23;100.00;102230.44;4927431;29;20052;-78
2023/12/17 09:14:14;;;;;;;50.45;37.75;;;;;;;0.33;100.00;102238.13;4922907;29;20539;-77
2023/12/17 09:16:40;;;;;;;49.53;37.03;;;;;;;0.40;100.00;102229.41;4926785;29;20035;-77
2023/12/17 09:19:05;;;;;;;47.08;35.90;;;;;;;0.50;100.00;102224.97;4923972;29;20032;-78
2023/12/17 09:21:31;;;;;;;47.40;36.35;;;;;;;0.54;100.00;102220.59;4922214;29;20044;-77
2023/12/17 09:23:56;;;;;;;50.70;37.83;;;;;;;0.50;100.00;102221.53;4923810;29;20047;-76
2023/12/17 09:26:22;;;;;;;50.47;37.67;;;;;;;0.51;100.00;102220.66;4925681;29;20047;-78
2023/12/17 09:28:47;;;;;;;51.60;37.72;;;;;;;0.56;100.00;102224.06;4920981;29;20080;-77
2023/12/17 09:31:13;;;;;;;53.53;39.05;;;;;;;0.65;100.00;102230.03;4928360;29;20443;-77
2023/12/17 09:33:40;;;;;;;51.63;37.97;;;;;;;0.73;100.00;102229.94;4922703;29;20123;-77
2023/12/17 09:36:09;;;;;;;56.05;39.83;;;;;;;0.79;100.00;102228.16;4942295;28;20040;-77
2023/12/17 09:38:34;;;;;;;51.35;38.03;;;;;;;0.94;100.00;102236.69;4923037;29;20421;-78
2023/12/17 09:41:00;;;;;;;49.63;38.25;;;;;;;0.95;100.00;102231.44;4925730;29;20040;-78
2023/12/17 09:43:26;;;;;;;47.90;37.60;;;;;;;1.08;100.00;102238.22;4925782;29;20040;-78
2023/12/17 09:45:52;;;;;;;51.97;37.85;;;;;;;1.20;100.00;102235.50;4925893;29;20562;-78
2023/12/17 09:48:18;;;;;;;51.10;37.47;;;;;;;1.24;100.00;102225.91;4927868;29;20027;-79
2023/12/17 09:50:44;;;;;;;49.65;36.90;;;;;;;1.36;100.00;102230.09;4930348;29;20107;-78
2023/12/17 09:53:09;;;;;;;48.10;37.30;;;;;;;1.38;100.00;102228.34;4927335;29;20106;-78
2023/12/17 09:55:35;;;;;;;49.67;35.83;;;;;;;1.49;100.00;102226.44;4930477;29;20034;-77
2023/12/17 09:58:04;;;;;;;51.00;37.40;;;;;;;1.32;100.00;102223.22;4926717;29;20098;-79
2023/12/17 10:00:31;;;;;;;50.25;37.42;;;;;;;1.28;100.00;102226.75;4928504;28;20103;-77
2023/12/17 10:03:04;;;;;;;49.90;38.03;;;;;;;1.45;100.00;102219.56;4926831;29;20441;-77
2023/12/17 10:05:30;;;;;;;49.00;37.08;;;;;;;1.49;100.00;102222.09;4927088;29;20032;-77
2023/12/17 10:07:56;;;;;;;52.05;38.25;;;;;;;1.54;100.00;102214.22;4928537;29;20050;-77
2023/12/17 10:10:21;;;;;;;51.42;37.38;;;;;;;1.44;100.00;102210.03;4929400;29;20480;-77
2023/12/17 10:12:48;;;;;;;52.67;39.20;;;;;;;1.38;100.00;102217.94;4926896;29;20031;-77
2023/12/17 10:15:14;;;;;;;52.70;38.92;;;;;;;1.48;100.00;102207.38;4930941;29;20039;-78
2023/12/17 10:17:40;;;;;;;51.78;37.47;;;;;;;1.59;100.00;102199.44;4921313;29;20060;-78
2023/12/17 10:20:07;;;;;;;56.47;41.15;;;;;;;1.66;100.00;102198.44;4928158;29;20465;-77
2023/12/17 10:22:33;;;;;;;53.60;38.88;;;;;;;1.60;100.00;102185.53;4924050;29;20095;-76
2023/12/17 10:24:58;;;;;;;55.22;40.25;;;;;;;1.68;100.00;102188.88;4925519;29;20028;-77
2023/12/17 10:27:24;;;;;;;57.70;40.97;;;;;;;1.73;100.00;102181.84;4927749;29;20036;-79
2023/12/17 10:29:52;;;;;;;54.20;38.58;;;;;;;1.77;100.00;102174.88;4927984;29;20039;-77
2023/12/17 10:32:22;;;;;;;54.38;39.63;;;;;;;1.74;100.00;102165.38;4944848;29;20047;-78
2023/12/17 10:34:50;;;;;;;55.83;41.08;;;;;;;1.81;100.00;102163.53;4946696;29;20046;-77
2023/12/17 10:37:20;;;;;;;59.72;42.25;;;;;;;1.84;100.00;102160.88;4948298;29;20038;-79
2023/12/17 10:39:50;;;;;;;60.47;42.10;;;;;;;1.82;100.00;102153.09;4944812;29;20092;-78
2023/12/17 10:42:19;;;;;;;62.78;42.25;;;;;;;1.91;100.00;102158.16;4949155;29;20039;-77
2023/12/17 10:44:49;;;;;;;60.35;42.22;;;;;;;1.97;100.00;102150.25;4941746;29;20064;-79
2023/12/17 10:47:21;;;;;;;57.50;42.13;;;;;;;2.08;100.00;102150.06;4930140;29;20032;-78
2023/12/17 10:49:48;;;;;;;60.45;42.30;;;;;;;2.21;100.00;102148.09;4925973;29;20032;-78
2023/12/17 10:52:15;;;;;;;62.83;42.70;;;;;;;2.24;100.00;102140.25;4931023;29;20031;-78
2023/12/17 10:54:41;;;;;;;63.03;43.53;;;;;;;2.32;100.00;102140.94;4925961;29;20395;-78
2023/12/17 10:57:12;;;;;;;63.40;42.33;;;;;;;2.34;100.00;102134.84;4926621;29;20019;-78